sensor_id;sensor_type;location;lat;lon;timestamp;temperature;humidity
11925;DHT22;6022;48.768;18.608;2022-08-19T00:01:53;24.50;99.90
11925;DHT22;6022;48.768;18.608;2022-08-19T00:04:26;24.00;99.90
11925;DHT22;6022;48.768;18.608;2022-08-19T00:06:56;24.50;99.90
11925;DHT22;6022;48.768;18.608;2022-08-19T00:09:26;23.70;99.90
11925;DHT22;6022;48.768;18.608;2022-08-19T00:11:55;23.00;99.90
11925;DHT22;6022;48.768;18.608;2022-08-19T00:14:25;24.10;99.90
11925;DHT22;6022;48.768;18.608;2022-08-19T00:16:54;24.20;99.90
11925;DHT22;6022;48.768;18.608;2022-08-19T00:19:23;24.10;99.90
11925;DHT22;6022;48.768;18.608;2022-08-19T00:21:51;23.90;99.90
11925;DHT22;6022;48.768;18.608;2022-08-19T00:24:19;24.60;99.90
11925;DHT22;6022;48.768;18.608;2022-08-19T00:29:17;24.10;99.90
11925;DHT22;6022;48.768;18.608;2022-08-19T00:31:46;22.80;99.90
11925;DHT22;6022;48.768;18.608;2022-08-19T00:34:16;24.00;99.90
11925;DHT22;6022;48.768;18.608;2022-08-19T00:39:12;25.10;99.90
11925;DHT22;6022;48.768;18.608;2022-08-19T00:41:42;24.80;99.90
11925;DHT22;6022;48.768;18.608;2022-08-19T00:44:22;22.30;99.90
11925;DHT22;6022;48.768;18.608;2022-08-19T00:46:54;23.80;99.90
11925;DHT22;6022;48.768;18.608;2022-08-19T00:49:35;23.10;99.90
11925;DHT22;6022;48.768;18.608;2022-08-19T00:52:19;23.80;99.90
11925;DHT22;6022;48.768;18.608;2022-08-19T00:54:58;22.30;99.90
11925;DHT22;6022;48.768;18.608;2022-08-19T00:57:33;24.40;99.90
11925;DHT22;6022;48.768;18.608;2022-08-19T01:00:08;25.40;99.90
11925;DHT22;6022;48.768;18.608;2022-08-19T01:05:14;23.70;99.90
11925;DHT22;6022;48.768;18.608;2022-08-19T01:07:45;23.50;99.90
11925;DHT22;6022;48.768;18.608;2022-08-19T01:10:18;22.00;99.90
11925;DHT22;6022;48.768;18.608;2022-08-19T01:12:48;22.60;99.90
11925;DHT22;6022;48.768;18.608;2022-08-19T01:15:20;22.20;99.90
11925;DHT22;6022;48.768;18.608;2022-08-19T01:17:52;22.90;99.90
11925;DHT22;6022;48.768;18.608;2022-08-19T01:20:22;24.80;99.90
11925;DHT22;6022;48.768;18.608;2022-08-19T01:22:56;24.40;99.90
11925;DHT22;6022;48.768;18.608;2022-08-19T01:25:29;24.50;99.90
11925;DHT22;6022;48.768;18.608;2022-08-19T01:33:10;24.00;99.90
11925;DHT22;6022;48.768;18.608;2022-08-19T01:35:37;23.00;99.90
11925;DHT22;6022;48.768;18.608;2022-08-19T01:38:09;23.80;99.90
11925;DHT22;6022;48.768;18.608;2022-08-19T01:43:13;24.20;99.90
11925;DHT22;6022;48.768;18.608;2022-08-19T01:45:41;23.50;99.90
11925;DHT22;6022;48.768;18.608;2022-08-19T01:48:09;23.50;99.90
11925;DHT22;6022;48.768;18.608;2022-08-19T01:50:36;25.60;99.90
11925;DHT22;6022;48.768;18.608;2022-08-19T01:53:07;23.80;99.90
11925;DHT22;6022;48.768;18.608;2022-08-19T01:55:41;23.80;99.90
11925;DHT22;6022;48.768;18.608;2022-08-19T01:58:15;24.30;99.90
11925;DHT22;6022;48.768;18.608;2022-08-19T02:00:48;24.00;99.90
11925;DHT22;6022;48.768;18.608;2022-08-19T02:03:17;24.60;99.90
11925;DHT22;6022;48.768;18.608;2022-08-19T02:05:44;23.60;99.90
11925;DHT22;6022;48.768;18.608;2022-08-19T02:08:12;23.90;99.90
11925;DHT22;6022;48.768;18.608;2022-08-19T02:10:43;23.80;99.90
11925;DHT22;6022;48.768;18.608;2022-08-19T02:13:12;23.60;99.90
11925;DHT22;6022;48.768;18.608;2022-08-19T02:15:40;22.80;99.90
11925;DHT22;6022;48.768;18.608;2022-08-19T02:20:38;24.40;99.90
11925;DHT22;6022;48.768;18.608;2022-08-19T02:23:06;23.90;99.90
11925;DHT22;6022;48.768;18.608;2022-08-19T02:25:46;22.30;99.90
11925;DHT22;6022;48.768;18.608;2022-08-19T02:28:15;24.60;99.90
11925;DHT22;6022;48.768;18.608;2022-08-19T02:30:46;24.40;99.90
11925;DHT22;6022;48.768;18.608;2022-08-19T02:33:14;24.50;99.90
11925;DHT22;6022;48.768;18.608;2022-08-19T02:35:46;23.30;99.90
11925;DHT22;6022;48.768;18.608;2022-08-19T02:38:15;23.40;99.90
11925;DHT22;6022;48.768;18.608;2022-08-19T02:41:01;23.40;99.90
11925;DHT22;6022;48.768;18.608;2022-08-19T02:43:32;23.70;99.90
11925;DHT22;6022;48.768;18.608;2022-08-19T02:46:16;23.00;99.90
11925;DHT22;6022;48.768;18.608;2022-08-19T02:48:53;23.50;99.90
11925;DHT22;6022;48.768;18.608;2022-08-19T02:51:28;23.30;99.90
11925;DHT22;6022;48.768;18.608;2022-08-19T02:54:10;23.70;99.90
11925;DHT22;6022;48.768;18.608;2022-08-19T02:56:41;23.00;99.90
11925;DHT22;6022;48.768;18.608;2022-08-19T02:59:10;23.80;99.90
11925;DHT22;6022;48.768;18.608;2022-08-19T03:01:40;23.30;99.90
11925;DHT22;6022;48.768;18.608;2022-08-19T03:04:11;23.20;99.90
11925;DHT22;6022;48.768;18.608;2022-08-19T03:06:43;23.50;99.90
11925;DHT22;6022;48.768;18.608;2022-08-19T03:09:13;23.40;99.90
11925;DHT22;6022;48.768;18.608;2022-08-19T03:11:41;23.00;99.90
11925;DHT22;6022;48.768;18.608;2022-08-19T03:14:09;24.10;99.90
11925;DHT22;6022;48.768;18.608;2022-08-19T03:16:48;23.40;99.90
11925;DHT22;6022;48.768;18.608;2022-08-19T03:19:19;23.30;99.90
11925;DHT22;6022;48.768;18.608;2022-08-19T03:21:49;23.90;99.90
11925;DHT22;6022;48.768;18.608;2022-08-19T03:24:17;23.80;99.90
11925;DHT22;6022;48.768;18.608;2022-08-19T03:26:49;23.50;99.90
11925;DHT22;6022;48.768;18.608;2022-08-19T03:29:19;24.10;99.90
11925;DHT22;6022;48.768;18.608;2022-08-19T03:34:33;23.90;99.90
11925;DHT22;6022;48.768;18.608;2022-08-19T03:37:06;23.50;99.90
11925;DHT22;6022;48.768;18.608;2022-08-19T03:39:38;23.40;99.90
11925;DHT22;6022;48.768;18.608;2022-08-19T03:42:08;23.20;99.90
11925;DHT22;6022;48.768;18.608;2022-08-19T03:44:55;22.30;99.90
11925;DHT22;6022;48.768;18.608;2022-08-19T03:54:46;23.00;99.90
11925;DHT22;6022;48.768;18.608;2022-08-19T03:57:13;23.50;99.90
11925;DHT22;6022;48.768;18.608;2022-08-19T04:02:11;23.20;99.90
11925;DHT22;6022;48.768;18.608;2022-08-19T04:04:40;22.50;99.90
11925;DHT22;6022;48.768;18.608;2022-08-19T04:07:11;23.60;99.90
11925;DHT22;6022;48.768;18.608;2022-08-19T04:12:10;23.80;99.90
11925;DHT22;6022;48.768;18.608;2022-08-19T04:14:38;24.80;99.90
11925;DHT22;6022;48.768;18.608;2022-08-19T04:19:36;23.50;99.90
11925;DHT22;6022;48.768;18.608;2022-08-19T04:22:04;24.10;99.90
11925;DHT22;6022;48.768;18.608;2022-08-19T04:24:34;23.70;99.90
11925;DHT22;6022;48.768;18.608;2022-08-19T04:27:02;25.00;99.90
11925;DHT22;6022;48.768;18.608;2022-08-19T04:29:33;22.40;99.90
11925;DHT22;6022;48.768;18.608;2022-08-19T04:34:35;23.60;99.90
11925;DHT22;6022;48.768;18.608;2022-08-19T04:37:23;25.50;99.90
11925;DHT22;6022;48.768;18.608;2022-08-19T04:39:51;25.60;99.90
11925;DHT22;6022;48.768;18.608;2022-08-19T04:42:37;25.60;99.90
11925;DHT22;6022;48.768;18.608;2022-08-19T04:45:12;24.90;99.90
11925;DHT22;6022;48.768;18.608;2022-08-19T04:47:43;25.50;99.90
11925;DHT22;6022;48.768;18.608;2022-08-19T04:50:25;25.70;99.90
11925;DHT22;6022;48.768;18.608;2022-08-19T04:57:53;25.90;99.90
11925;DHT22;6022;48.768;18.608;2022-08-19T05:00:21;25.80;99.90
11925;DHT22;6022;48.768;18.608;2022-08-19T05:02:49;25.60;99.90
11925;DHT22;6022;48.768;18.608;2022-08-19T05:05:16;26.00;99.90
11925;DHT22;6022;48.768;18.608;2022-08-19T05:10:12;27.40;99.90
11925;DHT22;6022;48.768;18.608;2022-08-19T05:15:08;27.10;99.90
11925;DHT22;6022;48.768;18.608;2022-08-19T05:17:35;28.30;99.90
11925;DHT22;6022;48.768;18.608;2022-08-19T05:20:06;28.30;99.90
11925;DHT22;6022;48.768;18.608;2022-08-19T05:22:53;28.90;99.90
11925;DHT22;6022;48.768;18.608;2022-08-19T05:25:21;28.80;99.90
11925;DHT22;6022;48.768;18.608;2022-08-19T05:27:49;28.70;99.90
11925;DHT22;6022;48.768;18.608;2022-08-19T05:30:17;28.90;99.90
11925;DHT22;6022;48.768;18.608;2022-08-19T05:35:33;31.20;99.90
11925;DHT22;6022;48.768;18.608;2022-08-19T05:38:00;30.50;98.30
11925;DHT22;6022;48.768;18.608;2022-08-19T05:40:28;31.10;97.60
11925;DHT22;6022;48.768;18.608;2022-08-19T05:42:55;32.00;97.90
11925;DHT22;6022;48.768;18.608;2022-08-19T05:45:23;31.30;97.40
11925;DHT22;6022;48.768;18.608;2022-08-19T05:47:51;30.80;97.50
11925;DHT22;6022;48.768;18.608;2022-08-19T05:50:18;30.90;99.10
11925;DHT22;6022;48.768;18.608;2022-08-19T05:52:46;30.50;99.20
11925;DHT22;6022;48.768;18.608;2022-08-19T05:57:50;30.40;99.90
11925;DHT22;6022;48.768;18.608;2022-08-19T06:00:17;31.00;99.90
11925;DHT22;6022;48.768;18.608;2022-08-19T06:02:50;30.80;99.90
11925;DHT22;6022;48.768;18.608;2022-08-19T06:05:18;31.40;99.90
11925;DHT22;6022;48.768;18.608;2022-08-19T06:10:14;31.30;99.90
11925;DHT22;6022;48.768;18.608;2022-08-19T06:12:43;31.00;99.90
11925;DHT22;6022;48.768;18.608;2022-08-19T06:15:14;30.70;99.80
11925;DHT22;6022;48.768;18.608;2022-08-19T06:20:21;31.20;99.50
11925;DHT22;6022;48.768;18.608;2022-08-19T06:23:09;31.30;98.80
11925;DHT22;6022;48.768;18.608;2022-08-19T06:25:42;31.70;96.80
11925;DHT22;6022;48.768;18.608;2022-08-19T06:28:09;32.40;96.50
11925;DHT22;6022;48.768;18.608;2022-08-19T06:33:08;30.90;92.90
11925;DHT22;6022;48.768;18.608;2022-08-19T06:35:39;33.10;92.70
11925;DHT22;6022;48.768;18.608;2022-08-19T06:38:08;33.70;91.90
11925;DHT22;6022;48.768;18.608;2022-08-19T06:43:07;33.60;86.30
11925;DHT22;6022;48.768;18.608;2022-08-19T06:45:37;34.60;85.00
11925;DHT22;6022;48.768;18.608;2022-08-19T06:48:05;31.90;81.90
11925;DHT22;6022;48.768;18.608;2022-08-19T06:50:33;35.20;77.80
11925;DHT22;6022;48.768;18.608;2022-08-19T06:53:05;35.20;77.20
11925;DHT22;6022;48.768;18.608;2022-08-19T06:55:32;33.90;71.50
11925;DHT22;6022;48.768;18.608;2022-08-19T06:58:03;35.00;74.60
11925;DHT22;6022;48.768;18.608;2022-08-19T07:05:39;31.80;71.20
11925;DHT22;6022;48.768;18.608;2022-08-19T07:10:43;35.60;65.80
11925;DHT22;6022;48.768;18.608;2022-08-19T07:13:12;35.20;65.20
11925;DHT22;6022;48.768;18.608;2022-08-19T07:15:39;34.60;62.20
11925;DHT22;6022;48.768;18.608;2022-08-19T07:20:38;35.30;62.60
11925;DHT22;6022;48.768;18.608;2022-08-19T07:23:08;36.90;61.80
11925;DHT22;6022;48.768;18.608;2022-08-19T07:25:42;36.00;60.70
11925;DHT22;6022;48.768;18.608;2022-08-19T07:28:10;37.40;59.10
11925;DHT22;6022;48.768;18.608;2022-08-19T07:35:46;37.80;57.10
11925;DHT22;6022;48.768;18.608;2022-08-19T07:38:15;36.50;56.70
11925;DHT22;6022;48.768;18.608;2022-08-19T07:40:44;38.00;54.10
11925;DHT22;6022;48.768;18.608;2022-08-19T07:43:13;39.50;54.50
11925;DHT22;6022;48.768;18.608;2022-08-19T07:48:11;38.40;50.20
11925;DHT22;6022;48.768;18.608;2022-08-19T07:53:07;39.40;48.70
11925;DHT22;6022;48.768;18.608;2022-08-19T07:55:34;38.50;47.20
11925;DHT22;6022;48.768;18.608;2022-08-19T07:58:11;38.50;46.60
11925;DHT22;6022;48.768;18.608;2022-08-19T08:00:41;38.60;45.50
11925;DHT22;6022;48.768;18.608;2022-08-19T08:03:10;38.80;46.10
11925;DHT22;6022;48.768;18.608;2022-08-19T08:05:38;39.20;47.30
11925;DHT22;6022;48.768;18.608;2022-08-19T08:10:59;38.60;46.60
11925;DHT22;6022;48.768;18.608;2022-08-19T08:13:27;37.50;45.50
11925;DHT22;6022;48.768;18.608;2022-08-19T08:15:56;37.80;47.30
11925;DHT22;6022;48.768;18.608;2022-08-19T08:18:24;36.10;47.80
11925;DHT22;6022;48.768;18.608;2022-08-19T08:20:57;36.50;48.30
11925;DHT22;6022;48.768;18.608;2022-08-19T08:23:25;37.80;49.60
11925;DHT22;6022;48.768;18.608;2022-08-19T08:25:55;35.00;48.60
11925;DHT22;6022;48.768;18.608;2022-08-19T08:28:26;37.30;52.20
11925;DHT22;6022;48.768;18.608;2022-08-19T08:30:56;34.40;50.60
11925;DHT22;6022;48.768;18.608;2022-08-19T08:33:27;33.20;53.90
11925;DHT22;6022;48.768;18.608;2022-08-19T08:36:11;34.40;52.80
11925;DHT22;6022;48.768;18.608;2022-08-19T08:38:42;34.30;52.20
11925;DHT22;6022;48.768;18.608;2022-08-19T08:43:49;35.00;53.00
11925;DHT22;6022;48.768;18.608;2022-08-19T08:47:29;35.20;49.60
11925;DHT22;6022;48.768;18.608;2022-08-19T08:52:34;39.30;46.00
11925;DHT22;6022;48.768;18.608;2022-08-19T08:55:17;38.70;42.90
11925;DHT22;6022;48.768;18.608;2022-08-19T08:57:52;38.90;42.20
11925;DHT22;6022;48.768;18.608;2022-08-19T09:00:32;40.40;44.30
11925;DHT22;6022;48.768;18.608;2022-08-19T09:03:18;39.80;42.10
11925;DHT22;6022;48.768;18.608;2022-08-19T09:06:18;38.80;41.90
11925;DHT22;6022;48.768;18.608;2022-08-19T09:09:13;38.50;41.00
11925;DHT22;6022;48.768;18.608;2022-08-19T09:14:49;38.60;41.10
11925;DHT22;6022;48.768;18.608;2022-08-19T09:17:23;39.70;40.40
11925;DHT22;6022;48.768;18.608;2022-08-19T09:20:21;40.70;41.40
11925;DHT22;6022;48.768;18.608;2022-08-19T09:22:52;42.50;41.50
11925;DHT22;6022;48.768;18.608;2022-08-19T09:25:21;40.20;39.00
11925;DHT22;6022;48.768;18.608;2022-08-19T09:27:54;43.10;40.50
11925;DHT22;6022;48.768;18.608;2022-08-19T09:30:32;40.70;36.60
11925;DHT22;6022;48.768;18.608;2022-08-19T09:33:01;43.20;37.80
11925;DHT22;6022;48.768;18.608;2022-08-19T09:35:29;40.40;34.50
11925;DHT22;6022;48.768;18.608;2022-08-19T09:37:58;40.20;36.20
11925;DHT22;6022;48.768;18.608;2022-08-19T09:40:27;42.90;36.50
11925;DHT22;6022;48.768;18.608;2022-08-19T09:43:01;44.10;37.80
11925;DHT22;6022;48.768;18.608;2022-08-19T09:45:39;44.10;36.60
11925;DHT22;6022;48.768;18.608;2022-08-19T09:48:07;43.40;34.50
11925;DHT22;6022;48.768;18.608;2022-08-19T09:50:37;42.20;34.90
11925;DHT22;6022;48.768;18.608;2022-08-19T09:53:18;42.20;35.10
11925;DHT22;6022;48.768;18.608;2022-08-19T09:58:13;40.10;35.50
11925;DHT22;6022;48.768;18.608;2022-08-19T10:00:40;40.50;35.90
11925;DHT22;6022;48.768;18.608;2022-08-19T10:03:08;40.50;34.60
11925;DHT22;6022;48.768;18.608;2022-08-19T10:05:36;42.40;34.50
11925;DHT22;6022;48.768;18.608;2022-08-19T10:08:25;44.00;36.60
11925;DHT22;6022;48.768;18.608;2022-08-19T10:10:56;42.80;34.50
11925;DHT22;6022;48.768;18.608;2022-08-19T10:13:26;41.80;34.30
11925;DHT22;6022;48.768;18.608;2022-08-19T10:16:01;42.40;36.50
11925;DHT22;6022;48.768;18.608;2022-08-19T10:18:32;40.30;34.80
11925;DHT22;6022;48.768;18.608;2022-08-19T10:21:07;42.00;33.80
11925;DHT22;6022;48.768;18.608;2022-08-19T10:23:42;40.60;35.30
11925;DHT22;6022;48.768;18.608;2022-08-19T10:26:18;42.00;34.10
11925;DHT22;6022;48.768;18.608;2022-08-19T10:28:52;39.30;34.00
11925;DHT22;6022;48.768;18.608;2022-08-19T10:31:31;42.40;36.20
11925;DHT22;6022;48.768;18.608;2022-08-19T10:34:20;40.20;35.70
11925;DHT22;6022;48.768;18.608;2022-08-19T10:36:55;41.10;35.50
11925;DHT22;6022;48.768;18.608;2022-08-19T10:39:29;41.80;37.60
11925;DHT22;6022;48.768;18.608;2022-08-19T10:42:09;40.50;35.80
11925;DHT22;6022;48.768;18.608;2022-08-19T10:47:05;38.30;34.80
11925;DHT22;6022;48.768;18.608;2022-08-19T10:49:52;39.40;35.50
11925;DHT22;6022;48.768;18.608;2022-08-19T10:52:41;38.80;37.30
11925;DHT22;6022;48.768;18.608;2022-08-19T10:55:21;40.00;36.40
11925;DHT22;6022;48.768;18.608;2022-08-19T10:58:12;41.60;38.10
11925;DHT22;6022;48.768;18.608;2022-08-19T11:00:43;39.30;35.70
11925;DHT22;6022;48.768;18.608;2022-08-19T11:03:10;39.80;37.50
11925;DHT22;6022;48.768;18.608;2022-08-19T11:08:07;38.70;37.90
11925;DHT22;6022;48.768;18.608;2022-08-19T11:10:51;39.80;37.70
11925;DHT22;6022;48.768;18.608;2022-08-19T11:16:00;39.80;36.90
11925;DHT22;6022;48.768;18.608;2022-08-19T11:18:48;38.20;35.60
11925;DHT22;6022;48.768;18.608;2022-08-19T11:21:29;38.60;36.30
11925;DHT22;6022;48.768;18.608;2022-08-19T11:24:04;39.00;37.50
11925;DHT22;6022;48.768;18.608;2022-08-19T11:26:34;39.00;39.00
11925;DHT22;6022;48.768;18.608;2022-08-19T11:29:03;38.40;37.40
11925;DHT22;6022;48.768;18.608;2022-08-19T11:31:34;39.20;36.80
11925;DHT22;6022;48.768;18.608;2022-08-19T11:34:04;38.90;39.80
11925;DHT22;6022;48.768;18.608;2022-08-19T11:36:34;39.20;39.70
11925;DHT22;6022;48.768;18.608;2022-08-19T11:39:06;38.20;39.30
11925;DHT22;6022;48.768;18.608;2022-08-19T11:44:03;38.80;43.70
11925;DHT22;6022;48.768;18.608;2022-08-19T11:46:31;38.10;41.00
11925;DHT22;6022;48.768;18.608;2022-08-19T11:49:01;37.90;38.00
11925;DHT22;6022;48.768;18.608;2022-08-19T11:53:58;38.50;39.70
11925;DHT22;6022;48.768;18.608;2022-08-19T11:56:27;37.40;36.70
11925;DHT22;6022;48.768;18.608;2022-08-19T11:58:55;38.60;38.10
11925;DHT22;6022;48.768;18.608;2022-08-19T12:01:26;39.30;39.30
11925;DHT22;6022;48.768;18.608;2022-08-19T12:03:57;39.30;37.70
11925;DHT22;6022;48.768;18.608;2022-08-19T12:06:28;38.80;38.60
11925;DHT22;6022;48.768;18.608;2022-08-19T12:09:06;38.20;36.40
11925;DHT22;6022;48.768;18.608;2022-08-19T12:11:37;39.10;40.00
11925;DHT22;6022;48.768;18.608;2022-08-19T12:16:43;37.60;37.10
11925;DHT22;6022;48.768;18.608;2022-08-19T12:19:18;38.50;38.70
11925;DHT22;6022;48.768;18.608;2022-08-19T12:21:49;39.30;39.90
11925;DHT22;6022;48.768;18.608;2022-08-19T12:24:17;39.10;37.70
11925;DHT22;6022;48.768;18.608;2022-08-19T12:29:21;39.30;38.60
11925;DHT22;6022;48.768;18.608;2022-08-19T12:31:50;38.90;38.20
11925;DHT22;6022;48.768;18.608;2022-08-19T12:34:18;38.00;36.40
11925;DHT22;6022;48.768;18.608;2022-08-19T12:36:47;37.60;37.30
11925;DHT22;6022;48.768;18.608;2022-08-19T12:39:16;38.20;37.20
11925;DHT22;6022;48.768;18.608;2022-08-19T12:44:22;39.50;35.00
11925;DHT22;6022;48.768;18.608;2022-08-19T12:46:56;39.50;37.40
11925;DHT22;6022;48.768;18.608;2022-08-19T12:49:24;39.30;36.90
11925;DHT22;6022;48.768;18.608;2022-08-19T12:52:14;38.60;38.20
11925;DHT22;6022;48.768;18.608;2022-08-19T12:54:50;38.60;37.10
11925;DHT22;6022;48.768;18.608;2022-08-19T13:00:01;37.40;36.10
11925;DHT22;6022;48.768;18.608;2022-08-19T13:02:43;38.50;37.40
11925;DHT22;6022;48.768;18.608;2022-08-19T13:05:25;38.60;38.60
11925;DHT22;6022;48.768;18.608;2022-08-19T13:07:55;37.70;38.70
11925;DHT22;6022;48.768;18.608;2022-08-19T13:10:26;37.30;39.80
11925;DHT22;6022;48.768;18.608;2022-08-19T13:13:06;38.20;40.70
11925;DHT22;6022;48.768;18.608;2022-08-19T13:15:40;37.30;38.60
11925;DHT22;6022;48.768;18.608;2022-08-19T13:18:09;37.20;37.30
11925;DHT22;6022;48.768;18.608;2022-08-19T13:23:08;37.50;37.20
11925;DHT22;6022;48.768;18.608;2022-08-19T13:25:36;38.60;43.30
11925;DHT22;6022;48.768;18.608;2022-08-19T13:30:33;36.80;38.70
11925;DHT22;6022;48.768;18.608;2022-08-19T13:33:18;36.50;39.00
11925;DHT22;6022;48.768;18.608;2022-08-19T13:35:51;34.90;40.10
11925;DHT22;6022;48.768;18.608;2022-08-19T13:38:24;37.50;40.40
11925;DHT22;6022;48.768;18.608;2022-08-19T13:40:52;36.70;36.70
11925;DHT22;6022;48.768;18.608;2022-08-19T13:43:24;36.50;37.00
11925;DHT22;6022;48.768;18.608;2022-08-19T13:45:54;37.40;40.30
11925;DHT22;6022;48.768;18.608;2022-08-19T13:48:25;36.80;37.30
11925;DHT22;6022;48.768;18.608;2022-08-19T13:50:54;35.20;41.00
11925;DHT22;6022;48.768;18.608;2022-08-19T13:53:22;35.10;41.30
11925;DHT22;6022;48.768;18.608;2022-08-19T14:00:46;36.60;38.90
11925;DHT22;6022;48.768;18.608;2022-08-19T14:03:14;35.00;42.30
11925;DHT22;6022;48.768;18.608;2022-08-19T14:13:12;36.80;44.20
11925;DHT22;6022;48.768;18.608;2022-08-19T14:20:36;37.30;43.70
11925;DHT22;6022;48.768;18.608;2022-08-19T14:23:04;38.00;46.00
11925;DHT22;6022;48.768;18.608;2022-08-19T14:25:34;35.90;44.10
11925;DHT22;6022;48.768;18.608;2022-08-19T14:28:01;36.20;42.70
11925;DHT22;6022;48.768;18.608;2022-08-19T14:30:32;36.20;40.30
11925;DHT22;6022;48.768;18.608;2022-08-19T14:33:01;36.00;40.00
11925;DHT22;6022;48.768;18.608;2022-08-19T14:35:32;35.80;40.60
11925;DHT22;6022;48.768;18.608;2022-08-19T14:38:05;35.50;40.90
11925;DHT22;6022;48.768;18.608;2022-08-19T14:43:03;36.00;44.70
11925;DHT22;6022;48.768;18.608;2022-08-19T14:45:34;33.00;48.40
11925;DHT22;6022;48.768;18.608;2022-08-19T14:48:08;33.20;52.00
11925;DHT22;6022;48.768;18.608;2022-08-19T14:55:43;31.60;60.10
11925;DHT22;6022;48.768;18.608;2022-08-19T14:58:12;32.20;67.70
11925;DHT22;6022;48.768;18.608;2022-08-19T15:00:57;31.10;66.50
11925;DHT22;6022;48.768;18.608;2022-08-19T15:10:54;31.30;72.70
11925;DHT22;6022;48.768;18.608;2022-08-19T15:20:49;32.00;85.70
11925;DHT22;6022;48.768;18.608;2022-08-19T15:23:18;30.80;83.10
11925;DHT22;6022;48.768;18.608;2022-08-19T15:25:47;30.80;85.80
11925;DHT22;6022;48.768;18.608;2022-08-19T15:33:11;30.60;86.50
11925;DHT22;6022;48.768;18.608;2022-08-19T15:35:43;28.90;91.10
11925;DHT22;6022;48.768;18.608;2022-08-19T15:40:40;31.60;92.80
11925;DHT22;6022;48.768;18.608;2022-08-19T15:48:04;30.10;91.00
11925;DHT22;6022;48.768;18.608;2022-08-19T15:50:31;31.80;94.90
11925;DHT22;6022;48.768;18.608;2022-08-19T15:53:02;30.20;91.40
11925;DHT22;6022;48.768;18.608;2022-08-19T15:55:35;29.90;94.20
11925;DHT22;6022;48.768;18.608;2022-08-19T15:58:10;29.90;92.20
11925;DHT22;6022;48.768;18.608;2022-08-19T16:01:01;30.00;93.20
11925;DHT22;6022;48.768;18.608;2022-08-19T16:03:55;29.70;93.70
11925;DHT22;6022;48.768;18.608;2022-08-19T16:06:51;29.80;93.60
11925;DHT22;6022;48.768;18.608;2022-08-19T16:09:25;28.80;96.90
11925;DHT22;6022;48.768;18.608;2022-08-19T16:11:59;29.00;96.80
11925;DHT22;6022;48.768;18.608;2022-08-19T16:14:31;29.80;95.00
11925;DHT22;6022;48.768;18.608;2022-08-19T16:24:27;29.50;96.60
11925;DHT22;6022;48.768;18.608;2022-08-19T16:26:55;29.60;96.60
11925;DHT22;6022;48.768;18.608;2022-08-19T16:32:02;29.60;97.30
11925;DHT22;6022;48.768;18.608;2022-08-19T16:34:31;29.50;96.60
11925;DHT22;6022;48.768;18.608;2022-08-19T16:36:59;28.60;99.40
11925;DHT22;6022;48.768;18.608;2022-08-19T16:49:29;28.60;99.90
11925;DHT22;6022;48.768;18.608;2022-08-19T16:52:17;29.30;98.90
11925;DHT22;6022;48.768;18.608;2022-08-19T16:54:46;29.40;99.60
11925;DHT22;6022;48.768;18.608;2022-08-19T17:02:17;28.30;99.90
11925;DHT22;6022;48.768;18.608;2022-08-19T17:07:27;28.70;99.90
11925;DHT22;6022;48.768;18.608;2022-08-19T17:15:00;28.60;99.90
11925;DHT22;6022;48.768;18.608;2022-08-19T17:17:29;28.60;99.90
11925;DHT22;6022;48.768;18.608;2022-08-19T17:19:58;28.50;99.90
11925;DHT22;6022;48.768;18.608;2022-08-19T17:27:28;28.30;99.90
11925;DHT22;6022;48.768;18.608;2022-08-19T17:32:28;29.70;99.90
11925;DHT22;6022;48.768;18.608;2022-08-19T17:39:55;27.10;99.90
11925;DHT22;6022;48.768;18.608;2022-08-19T17:47:18;28.20;99.90
11925;DHT22;6022;48.768;18.608;2022-08-19T18:02:08;27.80;99.90
11925;DHT22;6022;48.768;18.608;2022-08-19T18:04:37;27.80;99.90
11925;DHT22;6022;48.768;18.608;2022-08-19T18:09:35;27.20;99.90
11925;DHT22;6022;48.768;18.608;2022-08-19T18:12:12;27.40;99.90
11925;DHT22;6022;48.768;18.608;2022-08-19T18:17:11;27.70;99.90
11925;DHT22;6022;48.768;18.608;2022-08-19T18:19:44;27.50;99.90
11925;DHT22;6022;48.768;18.608;2022-08-19T18:22:23;27.00;99.90
11925;DHT22;6022;48.768;18.608;2022-08-19T18:24:54;27.50;99.90
11925;DHT22;6022;48.768;18.608;2022-08-19T18:27:24;27.40;99.90
11925;DHT22;6022;48.768;18.608;2022-08-19T18:29:53;27.40;99.90
11925;DHT22;6022;48.768;18.608;2022-08-19T18:32:30;28.10;99.90
11925;DHT22;6022;48.768;18.608;2022-08-19T18:35:07;27.20;99.90
11925;DHT22;6022;48.768;18.608;2022-08-19T18:37:39;27.30;99.90
11925;DHT22;6022;48.768;18.608;2022-08-19T18:40:10;27.20;99.90
11925;DHT22;6022;48.768;18.608;2022-08-19T18:56:26;26.80;99.90
11925;DHT22;6022;48.768;18.608;2022-08-19T19:01:29;26.70;99.90
11925;DHT22;6022;48.768;18.608;2022-08-19T19:04:02;26.40;99.90
11925;DHT22;6022;48.768;18.608;2022-08-19T19:06:34;26.60;99.90
11925;DHT22;6022;48.768;18.608;2022-08-19T19:09:07;26.50;99.90
11925;DHT22;6022;48.768;18.608;2022-08-19T19:11:40;26.50;99.90
11925;DHT22;6022;48.768;18.608;2022-08-19T19:14:15;26.30;99.90
11925;DHT22;6022;48.768;18.608;2022-08-19T19:17:10;26.20;99.90
11925;DHT22;6022;48.768;18.608;2022-08-19T19:19:41;26.10;99.90
11925;DHT22;6022;48.768;18.608;2022-08-19T19:22:13;26.00;99.90
11925;DHT22;6022;48.768;18.608;2022-08-19T19:27:12;26.10;99.90
11925;DHT22;6022;48.768;18.608;2022-08-19T19:32:18;25.90;99.90
11925;DHT22;6022;48.768;18.608;2022-08-19T19:42:19;25.00;99.90
11925;DHT22;6022;48.768;18.608;2022-08-19T19:44:50;24.90;99.90
11925;DHT22;6022;48.768;18.608;2022-08-19T20:00:14;23.40;99.90
11925;DHT22;6022;48.768;18.608;2022-08-19T20:05:17;24.00;99.90
11925;DHT22;6022;48.768;18.608;2022-08-19T20:10:36;23.00;99.90
11925;DHT22;6022;48.768;18.608;2022-08-19T20:30:28;24.20;99.90
11925;DHT22;6022;48.768;18.608;2022-08-19T20:45:22;23.60;99.90
11925;DHT22;6022;48.768;18.608;2022-08-19T20:50:31;23.00;99.90
11925;DHT22;6022;48.768;18.608;2022-08-19T20:53:08;23.30;99.90
11925;DHT22;6022;48.768;18.608;2022-08-19T20:58:09;23.70;99.90
11925;DHT22;6022;48.768;18.608;2022-08-19T21:00:39;23.40;99.90
11925;DHT22;6022;48.768;18.608;2022-08-19T21:20:40;23.70;99.90
11925;DHT22;6022;48.768;18.608;2022-08-19T21:23:12;21.70;99.90
11925;DHT22;6022;48.768;18.608;2022-08-19T22:03:25;22.30;99.90
11925;DHT22;6022;48.768;18.608;2022-08-19T22:25:43;22.10;99.90
11925;DHT22;6022;48.768;18.608;2022-08-19T22:28:14;22.20;99.90
11925;DHT22;6022;48.768;18.608;2022-08-19T22:35:50;22.30;99.90
11925;DHT22;6022;48.768;18.608;2022-08-19T22:43:18;22.40;99.90
11925;DHT22;6022;48.768;18.608;2022-08-19T22:45:49;22.30;99.90
11925;DHT22;6022;48.768;18.608;2022-08-19T22:50:48;22.20;99.90
11925;DHT22;6022;48.768;18.608;2022-08-19T22:53:35;22.10;99.90
11925;DHT22;6022;48.768;18.608;2022-08-19T22:56:06;21.90;99.90